Time;durP1;ratioP1;P1;durP2;ratioP2;P2;SDS_P1;SDS_P2;PMS_P1;PMS_P2;Temp;Humidity;BMP_temperature;BMP_pressure;BME280_temperature;BME280_humidity;BME280_pressure;Samples;Min_cycle;Max_cycle;Signal;HPM_P1;HPM_P2
2021/01/16 00:01:47;;;;;;;14.15;6.05;;;0.20;99.90;;;;;;4954083;28;20039;-80
2021/01/16 00:04:12;;;;;;;13.52;6.13;;;0.20;99.90;;;;;;4953882;28;20114;-80
2021/01/16 00:06:38;;;;;;;12.52;5.80;;;0.20;99.90;;;;;;4953642;28;20427;-80
2021/01/16 00:09:04;;;;;;;17.67;5.60;;;0.20;99.90;;;;;;4953313;28;20126;-80
2021/01/16 00:11:30;;;;;;;16.02;6.72;;;0.30;99.90;;;;;;4971091;28;20105;-81
2021/01/16 00:13:55;;;;;;;13.02;6.90;;;0.20;99.90;;;;;;4970674;28;20047;-81
2021/01/16 00:16:21;;;;;;;13.95;6.35;;;0.20;99.90;;;;;;4953448;28;20030;-81
2021/01/16 00:18:46;;;;;;;12.77;6.63;;;0.30;99.90;;;;;;4952310;28;20027;-81
2021/01/16 00:21:12;;;;;;;17.23;6.40;;;0.30;99.90;;;;;;4953135;28;20122;-81
2021/01/16 00:23:37;;;;;;;14.27;6.40;;;0.30;99.90;;;;;;4953032;28;20023;-80
2021/01/16 00:26:03;;;;;;;15.50;7.03;;;0.30;99.90;;;;;;4952959;28;20113;-80
2021/01/16 00:28:31;;;;;;;17.55;7.00;;;0.40;99.90;;;;;;4953285;28;20031;-80
2021/01/16 00:30:58;;;;;;;12.68;6.18;;;0.40;99.90;;;;;;4950168;28;20026;-81
2021/01/16 00:33:29;;;;;;;16.42;7.05;;;0.40;99.90;;;;;;4952945;28;20027;-80
2021/01/16 00:35:56;;;;;;;15.48;6.75;;;0.40;99.90;;;;;;4952764;28;20041;-81
2021/01/16 00:38:26;;;;;;;16.17;7.00;;;0.40;99.90;;;;;;4953023;28;20050;-80
2021/01/16 00:40:53;;;;;;;16.90;7.45;;;0.40;99.90;;;;;;4953153;28;20042;-81
2021/01/16 00:43:18;;;;;;;17.80;7.50;;;0.40;99.90;;;;;;4970251;28;20030;-80
2021/01/16 00:45:45;;;;;;;14.40;7.40;;;0.30;99.90;;;;;;4953558;28;20026;-80
2021/01/16 00:48:19;;;;;;;17.73;8.38;;;0.40;99.90;;;;;;4948842;28;20023;-80
2021/01/16 00:50:47;;;;;;;17.58;7.93;;;0.30;99.90;;;;;;4959036;28;20051;-81
2021/01/16 00:53:13;;;;;;;11.80;6.97;;;0.30;99.90;;;;;;4968652;28;20550;-81
2021/01/16 00:55:38;;;;;;;13.38;6.70;;;0.30;99.90;;;;;;4968943;28;20030;-80
2021/01/16 00:58:09;;;;;;;13.07;6.43;;;0.30;99.90;;;;;;4968498;28;20030;-82
2021/01/16 01:00:36;;;;;;;12.93;6.47;;;0.30;99.90;;;;;;4969038;28;20137;-80
2021/01/16 01:03:02;;;;;;;15.80;6.07;;;0.30;99.90;;;;;;4968758;28;20113;-80
2021/01/16 01:05:27;;;;;;;12.85;6.00;;;0.40;99.90;;;;;;4968942;28;20145;-80
2021/01/16 01:07:53;;;;;;;16.95;6.47;;;0.40;99.90;;;;;;4969913;28;20556;-80
2021/01/16 01:10:43;;;;;;;11.98;5.78;;;0.30;99.90;;;;;;4968762;28;20035;-80
2021/01/16 01:13:09;;;;;;;17.42;6.40;;;0.40;99.90;;;;;;4968647;28;20058;-80
2021/01/16 01:15:35;;;;;;;18.13;6.25;;;0.30;99.90;;;;;;4968488;28;20089;-80
2021/01/16 01:18:01;;;;;;;20.95;7.53;;;0.30;99.90;;;;;;4967232;28;20122;-80
2021/01/16 01:20:27;;;;;;;16.92;6.70;;;0.30;99.90;;;;;;4968423;28;20038;-80
2021/01/16 01:22:53;;;;;;;22.90;6.57;;;0.30;99.90;;;;;;4968758;28;20090;-81
2021/01/16 01:25:19;;;;;;;16.90;7.25;;;0.30;99.90;;;;;;4968434;28;20035;-80
2021/01/16 01:27:55;;;;;;;15.00;6.68;;;0.30;99.90;;;;;;4968582;28;20031;-80
2021/01/16 01:30:23;;;;;;;17.23;7.00;;;0.30;99.90;;;;;;4968521;28;20494;-80
2021/01/16 01:32:49;;;;;;;15.32;6.80;;;0.30;99.90;;;;;;4969968;28;20033;-80
2021/01/16 01:35:17;;;;;;;15.73;6.63;;;0.30;99.90;;;;;;4966493;28;20110;-81
2021/01/16 01:37:44;;;;;;;15.52;6.07;;;0.30;99.90;;;;;;4969755;28;20495;-80
2021/01/16 01:40:11;;;;;;;13.52;6.97;;;0.30;99.90;;;;;;4969704;28;20117;-80
2021/01/16 01:42:37;;;;;;;13.88;6.70;;;0.30;99.90;;;;;;4969700;28;20113;-80
2021/01/16 01:45:09;;;;;;;16.52;7.60;;;0.20;99.90;;;;;;4967367;28;20400;-81
2021/01/16 01:47:39;;;;;;;13.65;7.07;;;0.20;99.90;;;;;;4968840;28;20419;-81
2021/01/16 01:50:07;;;;;;;13.10;7.40;;;0.20;99.90;;;;;;4968008;28;20137;-80
2021/01/16 01:52:34;;;;;;;14.07;6.40;;;0.20;99.90;;;;;;4968165;28;20035;-80
2021/01/16 01:55:01;;;;;;;16.08;7.75;;;0.20;99.90;;;;;;4968305;28;20027;-81
2021/01/16 01:57:29;;;;;;;15.70;6.80;;;0.30;99.90;;;;;;4968362;28;20031;-80
2021/01/16 01:59:55;;;;;;;17.95;7.28;;;0.30;99.90;;;;;;4968286;28;20033;-80
2021/01/16 02:02:23;;;;;;;21.23;7.28;;;0.20;99.90;;;;;;4968643;28;20023;-80
2021/01/16 02:04:51;;;;;;;13.32;5.85;;;0.20;99.90;;;;;;4968036;28;20395;-80
2021/01/16 02:07:25;;;;;;;13.68;6.82;;;0.20;99.90;;;;;;4968244;28;20162;-80
2021/01/16 02:09:52;;;;;;;12.90;6.45;;;0.20;99.90;;;;;;4966387;28;20031;-80
2021/01/16 02:12:17;;;;;;;18.50;6.78;;;0.10;99.90;;;;;;4967675;28;20019;-80
2021/01/16 02:14:51;;;;;;;17.52;6.63;;;0.10;99.90;;;;;;4971791;28;20451;-80
2021/01/16 02:17:22;;;;;;;19.10;7.45;;;0.10;99.90;;;;;;4971745;28;20027;-80
2021/01/16 02:20:06;;;;;;;15.82;6.75;;;0.10;99.90;;;;;;4971682;28;20027;-80
2021/01/16 02:22:42;;;;;;;17.85;7.20;;;0.10;99.90;;;;;;4971555;28;20051;-80
2021/01/16 02:25:14;;;;;;;16.90;7.95;;;0.10;99.90;;;;;;4971768;28;20373;-80
2021/01/16 02:27:58;;;;;;;14.98;6.93;;;0.10;99.90;;;;;;4972478;28;20042;-80
2021/01/16 02:30:26;;;;;;;14.63;6.63;;;0.10;99.90;;;;;;4971703;28;20023;-80
2021/01/16 02:32:52;;;;;;;14.23;6.80;;;0.10;99.90;;;;;;4971393;28;20030;-80
2021/01/16 02:35:20;;;;;;;12.95;6.50;;;0.10;99.90;;;;;;4968094;28;20492;-80
2021/01/16 02:38:02;;;;;;;14.00;6.18;;;0.00;99.90;;;;;;4972185;28;20042;-80
2021/01/16 02:40:39;;;;;;;14.05;6.18;;;-0.10;99.90;;;;;;4972061;28;20038;-80
2021/01/16 02:43:19;;;;;;;15.45;6.93;;;-0.10;99.90;;;;;;4972619;28;20050;-79
2021/01/16 02:45:54;;;;;;;19.02;7.10;;;-0.10;99.90;;;;;;4972233;28;20034;-80
2021/01/16 02:48:26;;;;;;;13.73;6.53;;;-0.10;99.90;;;;;;4972772;28;20031;-81
2021/01/16 02:50:54;;;;;;;11.73;5.80;;;-0.10;99.90;;;;;;4972465;28;20050;-80
2021/01/16 02:53:21;;;;;;;15.82;6.75;;;-0.10;99.90;;;;;;4955055;28;20077;-81
2021/01/16 02:55:48;;;;;;;15.80;7.28;;;-0.20;99.90;;;;;;4955411;28;20036;-80
2021/01/16 02:58:15;;;;;;;14.73;6.10;;;-0.20;99.90;;;;;;4955376;28;20034;-80
2021/01/16 03:00:41;;;;;;;14.80;7.05;;;-0.20;99.90;;;;;;4954767;28;20133;-80
2021/01/16 03:03:07;;;;;;;21.48;7.10;;;-0.20;99.90;;;;;;4954425;28;20106;-80
2021/01/16 03:05:32;;;;;;;18.02;7.38;;;-0.20;99.90;;;;;;4953158;28;20510;-80
2021/01/16 03:07:59;;;;;;;15.50;7.57;;;-0.20;99.90;;;;;;4954233;28;20563;-80
2021/01/16 03:10:25;;;;;;;15.77;7.90;;;-0.30;99.90;;;;;;4954592;28;20023;-81
2021/01/16 03:12:52;;;;;;;15.27;7.15;;;-0.30;99.90;;;;;;4954906;28;20019;-80
2021/01/16 03:15:19;;;;;;;19.52;6.63;;;-0.30;99.90;;;;;;4951980;28;20054;-80
2021/01/16 03:17:49;;;;;;;17.83;7.80;;;-0.30;99.90;;;;;;4949547;28;20031;-80
2021/01/16 03:20:27;;;;;;;14.55;7.20;;;-0.30;99.90;;;;;;4954349;28;20034;-80
2021/01/16 03:22:58;;;;;;;19.60;7.00;;;-0.30;99.90;;;;;;4954831;28;20034;-81
2021/01/16 03:25:27;;;;;;;23.30;8.02;;;-0.30;99.90;;;;;;4954609;28;20166;-80
2021/01/16 03:27:54;;;;;;;30.23;7.50;;;-0.20;99.90;;;;;;4954441;28;20030;-80
2021/01/16 03:30:20;;;;;;;17.27;7.45;;;-0.20;99.90;;;;;;4954403;28;20035;-80
2021/01/16 03:32:47;;;;;;;17.58;7.50;;;-0.30;99.90;;;;;;4952661;28;20461;-80
2021/01/16 03:35:17;;;;;;;32.45;8.90;;;-0.20;99.90;;;;;;4951224;28;20486;-80
2021/01/16 03:37:43;;;;;;;15.27;8.40;;;-0.20;99.90;;;;;;4954322;28;20029;-80
2021/01/16 03:40:09;;;;;;;15.40;7.70;;;-0.20;99.90;;;;;;4971126;28;20113;-80
2021/01/16 03:42:36;;;;;;;18.98;7.65;;;-0.20;99.90;;;;;;4971475;28;20054;-80
2021/01/16 03:45:08;;;;;;;16.00;7.60;;;-0.30;99.90;;;;;;4953994;28;20105;-80
2021/01/16 03:47:34;;;;;;;14.07;7.55;;;-0.30;99.90;;;;;;4954247;28;20118;-80
2021/01/16 03:49:59;;;;;;;21.17;8.25;;;-0.30;99.90;;;;;;4955825;28;20137;-80
2021/01/16 03:52:33;;;;;;;14.27;7.57;;;-0.30;99.90;;;;;;4965198;28;20458;-80
2021/01/16 03:54:59;;;;;;;17.65;7.88;;;-0.30;99.90;;;;;;4970106;28;20019;-80
2021/01/16 03:57:26;;;;;;;13.65;6.95;;;-0.20;99.90;;;;;;4970221;28;20122;-80
2021/01/16 03:59:52;;;;;;;15.43;8.23;;;-0.20;99.90;;;;;;4969992;28;20494;-80
2021/01/16 04:02:18;;;;;;;13.75;7.00;;;-0.20;99.90;;;;;;4967412;28;20039;-80
2021/01/16 04:04:44;;;;;;;16.58;7.78;;;-0.20;99.90;;;;;;4968515;28;20025;-81
2021/01/16 04:07:10;;;;;;;20.40;8.00;;;-0.20;99.90;;;;;;4969462;28;20026;-81
2021/01/16 04:09:36;;;;;;;17.13;7.90;;;-0.20;99.90;;;;;;4971122;28;20066;-81
2021/01/16 04:12:01;;;;;;;16.95;7.60;;;-0.30;99.90;;;;;;4969880;28;20126;-81
2021/01/16 04:14:27;;;;;;;18.83;8.60;;;-0.30;99.90;;;;;;4969684;28;20026;-81
2021/01/16 04:16:53;;;;;;;16.10;7.78;;;-0.20;99.90;;;;;;4969765;28;20038;-80
2021/01/16 04:19:19;;;;;;;16.42;6.75;;;-0.30;99.90;;;;;;4970757;28;20023;-81
2021/01/16 04:21:45;;;;;;;21.70;7.88;;;-0.20;99.90;;;;;;4969414;28;20065;-81
2021/01/16 04:24:11;;;;;;;16.92;7.30;;;-0.20;99.90;;;;;;4967607;28;20032;-81
2021/01/16 04:26:36;;;;;;;26.83;7.75;;;-0.20;99.90;;;;;;4969932;28;20038;-81
2021/01/16 04:29:02;;;;;;;16.08;7.40;;;-0.20;99.90;;;;;;4969735;28;20488;-80
2021/01/16 04:31:28;;;;;;;16.42;7.50;;;-0.10;99.90;;;;;;4969933;28;20436;-80
2021/01/16 04:33:53;;;;;;;17.95;8.20;;;-0.10;99.90;;;;;;4969235;28;20077;-81
2021/01/16 04:36:19;;;;;;;21.15;7.35;;;-0.10;99.90;;;;;;4968935;28;20403;-81
2021/01/16 04:38:45;;;;;;;17.92;7.90;;;-0.20;99.90;;;;;;4970441;28;20054;-80
2021/01/16 04:41:12;;;;;;;14.43;7.45;;;-0.10;99.90;;;;;;4969246;28;20034;-81
2021/01/16 04:43:38;;;;;;;19.05;8.18;;;-0.20;99.90;;;;;;4970119;28;20058;-81
2021/01/16 04:46:06;;;;;;;12.20;6.45;;;-0.20;99.90;;;;;;4970326;28;20417;-81
2021/01/16 04:48:33;;;;;;;14.68;7.25;;;-0.20;99.90;;;;;;4969064;28;20047;-81
2021/01/16 04:51:00;;;;;;;13.18;6.97;;;-0.10;99.90;;;;;;4968833;28;20054;-81
2021/01/16 04:53:37;;;;;;;14.02;7.28;;;-0.20;99.90;;;;;;4969057;28;20022;-81
2021/01/16 04:56:08;;;;;;;19.05;8.27;;;-0.30;99.90;;;;;;4970644;28;20546;-81
2021/01/16 04:58:39;;;;;;;14.23;6.93;;;-0.30;99.90;;;;;;4966198;28;20479;-81
2021/01/16 05:01:06;;;;;;;25.08;7.18;;;-0.30;99.90;;;;;;4969024;28;20042;-81
2021/01/16 05:03:41;;;;;;;10.98;6.68;;;-0.30;99.90;;;;;;4968361;28;20027;-81
2021/01/16 05:06:12;;;;;;;17.55;6.97;;;-0.30;99.90;;;;;;4969236;28;20026;-81
2021/01/16 05:08:43;;;;;;;16.52;7.03;;;-0.30;99.90;;;;;;4968722;28;20447;-81
2021/01/16 05:11:22;;;;;;;14.75;7.82;;;-0.30;99.90;;;;;;4970129;28;20030;-81
2021/01/16 05:13:53;;;;;;;16.73;7.43;;;-0.40;99.90;;;;;;4968684;28;20027;-81
2021/01/16 05:16:25;;;;;;;15.15;7.97;;;-0.30;99.90;;;;;;4968845;28;20026;-82
2021/01/16 05:18:52;;;;;;;16.45;7.63;;;-0.30;99.90;;;;;;4968697;28;20038;-82
2021/01/16 05:21:18;;;;;;;18.60;8.00;;;-0.30;99.90;;;;;;4968711;28;20039;-81
2021/01/16 05:23:44;;;;;;;15.80;7.65;;;-0.40;99.90;;;;;;4968569;28;20392;-81
2021/01/16 05:26:11;;;;;;;16.00;7.68;;;-0.30;99.90;;;;;;4967425;28;20065;-82
2021/01/16 05:28:39;;;;;;;18.85;8.32;;;-0.40;99.90;;;;;;4968381;28;20031;-81
2021/01/16 05:31:07;;;;;;;16.42;8.00;;;-0.40;99.90;;;;;;4968600;28;20034;-81
2021/01/16 05:33:38;;;;;;;15.85;7.72;;;-0.40;99.90;;;;;;4962821;28;20081;-81
2021/01/16 05:36:05;;;;;;;;;;;-0.40;99.90;;;;;;4969186;28;20604;-81
2021/01/16 05:38:35;;;;;;;20.25;7.88;;;-0.40;99.90;;;;;;4952283;28;19914;-81
2021/01/16 05:41:04;;;;;;;16.13;8.00;;;-0.40;99.90;;;;;;4968343;28;20061;-81
2021/01/16 05:43:32;;;;;;;15.18;7.65;;;-0.40;99.90;;;;;;4936541;28;20122;-82
2021/01/16 05:46:00;;;;;;;19.50;8.82;;;-0.30;99.90;;;;;;4972665;28;20480;-81
2021/01/16 05:48:31;;;;;;;17.45;7.50;;;-0.40;99.90;;;;;;4971667;28;20027;-82
2021/01/16 05:50:58;;;;;;;24.95;8.98;;;-0.40;99.90;;;;;;4969635;28;20055;-81
2021/01/16 05:53:25;;;;;;;17.08;8.07;;;-0.30;99.90;;;;;;4972339;28;20037;-81
2021/01/16 05:55:52;;;;;;;18.40;7.28;;;-0.40;99.90;;;;;;4971448;28;20031;-81
2021/01/16 05:58:18;;;;;;;22.27;7.93;;;-0.40;99.90;;;;;;4972281;28;20031;-81
2021/01/16 06:00:49;;;;;;;18.63;8.18;;;-0.40;99.90;;;;;;4972301;28;20475;-81
2021/01/16 06:03:17;;;;;;;14.68;8.20;;;-0.50;99.90;;;;;;4972018;28;20038;-82
2021/01/16 06:05:50;;;;;;;21.90;8.75;;;-0.50;99.90;;;;;;4967255;28;20046;-82
2021/01/16 06:08:16;;;;;;;17.48;9.05;;;-0.40;99.90;;;;;;4971545;28;20034;-82
2021/01/16 06:10:43;;;;;;;17.67;9.18;;;-0.40;99.90;;;;;;4972196;28;20038;-81
2021/01/16 06:13:13;;;;;;;20.92;8.18;;;-0.40;99.90;;;;;;4971992;28;20452;-82
2021/01/16 06:15:43;;;;;;;17.35;8.48;;;-0.40;99.90;;;;;;4971644;28;20134;-82
2021/01/16 06:18:19;;;;;;;16.92;8.82;;;-0.40;99.90;;;;;;4971991;28;20069;-81
2021/01/16 06:20:49;;;;;;;16.00;8.18;;;-0.40;99.90;;;;;;4971473;28;20097;-81
2021/01/16 06:23:18;;;;;;;17.52;8.65;;;-0.40;99.90;;;;;;4971370;28;20034;-81
2021/01/16 06:25:49;;;;;;;15.85;8.88;;;-0.40;99.90;;;;;;4963739;28;20079;-82
2021/01/16 06:28:17;;;;;;;18.50;8.73;;;-0.40;99.90;;;;;;4971157;28;20031;-82
2021/01/16 06:30:46;;;;;;;18.27;8.50;;;-0.40;99.90;;;;;;4954764;28;20113;-81
2021/01/16 06:33:23;;;;;;;17.73;8.20;;;-0.50;99.90;;;;;;4953972;28;20066;-81
2021/01/16 06:35:56;;;;;;;15.98;8.38;;;-0.50;99.90;;;;;;4969130;28;20039;-81
2021/01/16 06:38:33;;;;;;;24.58;8.98;;;-0.50;99.90;;;;;;4954110;28;20054;-81
2021/01/16 06:41:16;;;;;;;15.70;8.00;;;-0.40;99.90;;;;;;4970557;28;20055;-81
2021/01/16 06:43:46;;;;;;;18.85;8.65;;;-0.50;99.90;;;;;;4970452;28;20073;-80
2021/01/16 06:46:15;;;;;;;15.13;8.38;;;-0.50;99.90;;;;;;4954497;28;20554;-81
2021/01/16 06:48:45;;;;;;;20.00;8.90;;;-0.50;99.90;;;;;;4954374;28;20512;-81
2021/01/16 06:51:24;;;;;;;16.67;8.85;;;-0.50;99.90;;;;;;4953801;28;20074;-80
2021/01/16 06:53:50;;;;;;;16.73;8.70;;;-0.40;99.90;;;;;;4953737;28;20062;-81
2021/01/16 06:56:25;;;;;;;22.60;8.75;;;-0.30;99.90;;;;;;4956001;28;20072;-81
2021/01/16 06:58:54;;;;;;;18.90;8.73;;;-0.40;99.90;;;;;;4966674;28;20053;-81
2021/01/16 07:01:31;;;;;;;16.05;8.50;;;-0.40;99.90;;;;;;4972295;28;20039;-81
2021/01/16 07:04:00;;;;;;;20.25;8.80;;;-0.40;99.90;;;;;;4970981;28;20026;-81
2021/01/16 07:06:26;;;;;;;21.27;8.52;;;-0.30;99.90;;;;;;4969688;28;20049;-81
2021/01/16 07:08:52;;;;;;;22.65;9.55;;;-0.30;99.90;;;;;;4970287;28;20480;-80
2021/01/16 07:11:18;;;;;;;16.55;9.02;;;-0.30;99.90;;;;;;4971664;28;20030;-81
2021/01/16 07:13:46;;;;;;;17.10;8.65;;;-0.40;99.90;;;;;;4970405;28;20030;-81
2021/01/16 07:16:12;;;;;;;19.13;7.55;;;-0.40;99.90;;;;;;4970631;28;20495;-80
2021/01/16 07:18:40;;;;;;;17.60;8.55;;;-0.40;99.90;;;;;;4966641;28;20038;-80
2021/01/16 07:21:07;;;;;;;19.13;9.10;;;-0.40;99.90;;;;;;4970251;28;20042;-81
2021/01/16 07:23:33;;;;;;;17.55;9.10;;;-0.40;99.90;;;;;;4970480;28;20031;-81
2021/01/16 07:26:00;;;;;;;17.90;8.63;;;-0.30;99.90;;;;;;4970810;28;20023;-81
2021/01/16 07:28:26;;;;;;;17.58;8.63;;;-0.30;99.90;;;;;;4968853;28;20085;-81
2021/01/16 07:30:53;;;;;;;17.38;9.23;;;-0.30;99.90;;;;;;4970741;28;20365;-81
2021/01/16 07:33:19;;;;;;;19.45;9.05;;;-0.40;99.90;;;;;;4965940;28;20073;-81
2021/01/16 07:35:50;;;;;;;21.90;8.55;;;-0.40;99.90;;;;;;4970245;28;20396;-81
2021/01/16 07:38:17;;;;;;;17.55;9.32;;;-0.30;99.90;;;;;;4970032;28;20031;-81
2021/01/16 07:40:44;;;;;;;17.17;8.02;;;-0.30;99.90;;;;;;4970822;28;20053;-81
2021/01/16 07:43:19;;;;;;;18.40;8.27;;;-0.30;99.90;;;;;;4971903;28;20019;-81
2021/01/16 07:45:49;;;;;;;24.92;8.98;;;-0.30;99.90;;;;;;4970068;28;20034;-81
2021/01/16 07:48:20;;;;;;;24.63;10.07;;;-0.40;99.90;;;;;;4968319;28;20028;-81
2021/01/16 07:50:51;;;;;;;21.27;9.77;;;-0.40;99.90;;;;;;4968843;28;20078;-81
2021/01/16 07:53:25;;;;;;;17.20;8.98;;;-0.40;99.90;;;;;;4968006;28;20102;-81
2021/01/16 07:56:03;;;;;;;19.98;10.07;;;-0.40;99.90;;;;;;4969608;28;20054;-81
2021/01/16 07:58:35;;;;;;;20.48;9.68;;;-0.40;99.90;;;;;;4953776;28;20034;-81
2021/01/16 08:01:15;;;;;;;20.02;8.75;;;-0.30;99.90;;;;;;4970839;28;20046;-81
2021/01/16 08:04:06;;;;;;;20.35;9.13;;;-0.30;99.90;;;;;;4953928;28;20429;-81
2021/01/16 08:06:34;;;;;;;18.30;9.20;;;-0.30;99.90;;;;;;4953328;28;20057;-81
2021/01/16 08:09:36;;;;;;;23.70;10.68;;;-0.30;99.90;;;;;;4952674;28;20031;-81
2021/01/16 08:12:03;;;;;;;26.10;9.70;;;-0.30;99.90;;;;;;4873494;29;20566;-81
2021/01/16 08:14:33;;;;;;;20.70;9.18;;;-0.30;99.90;;;;;;4857384;29;20562;-81
2021/01/16 08:17:00;;;;;;;22.25;9.70;;;-0.20;99.90;;;;;;4868745;29;20057;-81
2021/01/16 08:19:57;;;;;;;19.48;9.10;;;-0.20;99.90;;;;;;4857867;29;20100;-81
2021/01/16 08:22:24;;;;;;;28.30;11.13;;;-0.20;99.90;;;;;;4871361;29;20515;-81
2021/01/16 08:25:02;;;;;;;18.42;8.05;;;-0.10;99.90;;;;;;4857533;29;20025;-80
2021/01/16 08:27:30;;;;;;;17.55;8.02;;;-0.10;99.90;;;;;;4857634;29;20040;-81
2021/01/16 08:29:56;;;;;;;18.45;8.85;;;-0.10;99.90;;;;;;4872342;29;20088;-81
2021/01/16 08:32:22;;;;;;;18.55;8.93;;;0.00;99.90;;;;;;4855365;29;20029;-81
2021/01/16 08:34:56;;;;;;;26.35;9.73;;;0.10;99.90;;;;;;4872568;29;20413;-81
2021/01/16 08:37:35;;;;;;;19.95;10.45;;;0.00;99.90;;;;;;4874128;29;20037;-81
2021/01/16 08:40:09;;;;;;;23.35;9.93;;;0.00;99.90;;;;;;4856791;29;20029;-81
2021/01/16 08:42:52;;;;;;;19.90;10.00;;;0.00;99.90;;;;;;4856164;29;20090;-81
2021/01/16 08:45:18;;;;;;;23.52;9.82;;;0.00;99.90;;;;;;4871131;29;20033;-81
2021/01/16 08:47:58;;;;;;;25.63;10.82;;;0.00;99.90;;;;;;4876346;29;20462;-81
2021/01/16 08:50:32;;;;;;;25.13;9.90;;;0.10;99.90;;;;;;4956297;28;20395;-81
2021/01/16 08:52:58;;;;;;;25.95;10.68;;;0.10;99.90;;;;;;4970016;28;20027;-81
2021/01/16 08:55:29;;;;;;;20.33;10.95;;;0.10;99.90;;;;;;4968812;28;20045;-81
2021/01/16 08:58:10;;;;;;;30.60;11.40;;;0.10;99.90;;;;;;4970393;28;20025;-81
2021/01/16 09:00:40;;;;;;;27.85;10.02;;;0.20;99.90;;;;;;4968823;28;20515;-81
2021/01/16 09:03:06;;;;;;;20.50;10.57;;;0.10;99.90;;;;;;4968921;28;20303;-81
2021/01/16 09:05:33;;;;;;;20.13;9.93;;;0.10;99.90;;;;;;4968504;28;20031;-81
2021/01/16 09:07:59;;;;;;;22.45;10.10;;;0.10;99.90;;;;;;4968580;28;20054;-81
2021/01/16 09:10:26;;;;;;;21.90;10.55;;;0.10;99.90;;;;;;4966657;28;20085;-81
2021/01/16 09:12:52;;;;;;;25.20;11.07;;;0.10;99.90;;;;;;4969471;28;20023;-81
2021/01/16 09:15:35;;;;;;;22.85;10.55;;;0.20;99.90;;;;;;4969615;28;20054;-81
2021/01/16 09:18:08;;;;;;;23.90;10.75;;;0.30;99.90;;;;;;4967639;28;20034;-81
2021/01/16 09:20:42;;;;;;;35.22;11.68;;;0.40;99.90;;;;;;4970716;28;20349;-81
2021/01/16 09:23:19;;;;;;;24.27;10.48;;;0.40;99.90;;;;;;4967835;28;20027;-81
2021/01/16 09:25:57;;;;;;;36.42;12.50;;;0.50;99.90;;;;;;4965280;28;20403;-81
2021/01/16 09:28:49;;;;;;;20.17;10.88;;;0.40;99.90;;;;;;4969992;28;20037;-81
2021/01/16 09:31:24;;;;;;;20.20;9.73;;;0.30;99.90;;;;;;4967421;28;20538;-81
2021/01/16 09:34:08;;;;;;;22.90;10.40;;;0.40;99.90;;;;;;4969342;28;20051;-81
2021/01/16 09:36:37;;;;;;;21.55;10.48;;;0.40;99.90;;;;;;4968183;28;20527;-81
2021/01/16 09:39:05;;;;;;;25.83;10.57;;;0.30;99.90;;;;;;4967919;28;20495;-81
2021/01/16 09:41:33;;;;;;;28.30;10.70;;;0.40;99.90;;;;;;4966166;28;20038;-80
2021/01/16 09:43:59;;;;;;;22.05;10.50;;;0.40;99.90;;;;;;5127744;23;20060;-93
2021/01/16 09:46:37;;;;;;;30.10;11.30;;;0.60;99.90;;;;;;5016561;28;20053;-92
2021/01/16 09:49:06;;;;;;;28.00;11.55;;;0.40;99.90;;;;;;5021270;28;20036;-91
2021/01/16 09:51:33;;;;;;;26.02;11.40;;;0.40;99.90;;;;;;5007719;28;20389;-92
2021/01/16 09:54:15;;;;;;;31.58;11.55;;;0.50;99.90;;;;;;5015256;28;20030;-92
2021/01/16 09:56:45;;;;;;;27.10;11.40;;;0.60;99.90;;;;;;5016118;28;20028;-92
2021/01/16 09:59:29;;;;;;;21.95;10.32;;;0.70;99.90;;;;;;5016186;28;20041;-93
2021/01/16 10:02:13;;;;;;;32.50;11.05;;;0.60;99.90;;;;;;4992286;23;20092;-82
2021/01/16 10:04:40;;;;;;;23.08;10.60;;;0.60;99.90;;;;;;4990963;28;20029;-82
2021/01/16 10:07:08;;;;;;;24.35;10.55;;;0.60;99.90;;;;;;4991069;28;20018;-82
2021/01/16 10:09:42;;;;;;;21.35;10.98;;;0.60;99.90;;;;;;4992267;28;20032;-82
2021/01/16 10:12:09;;;;;;;34.63;12.85;;;0.70;99.90;;;;;;5008689;28;20019;-82
2021/01/16 10:14:36;;;;;;;23.88;10.40;;;0.70;99.90;;;;;;5010674;28;20034;-82
2021/01/16 10:17:10;;;;;;;32.13;10.70;;;0.80;99.90;;;;;;4991199;28;20454;-82
2021/01/16 10:19:39;;;;;;;19.25;10.05;;;0.90;99.90;;;;;;4991465;28;20022;-82
2021/01/16 10:22:10;;;;;;;30.02;11.55;;;1.00;99.90;;;;;;4990336;28;20041;-82
2021/01/16 10:24:43;;;;;;;;;;;0.90;99.90;;;;;;4991003;28;20112;-80
2021/01/16 10:27:09;;;;;;;27.05;11.00;;;0.80;99.90;;;;;;4989767;28;19917;-80
2021/01/16 10:29:40;;;;;;;21.98;10.63;;;0.80;99.90;;;;;;4990841;28;20117;-82
2021/01/16 10:32:23;;;;;;;32.70;12.67;;;0.80;99.90;;;;;;4993693;28;20490;-80
2021/01/16 10:34:58;;;;;;;29.80;11.10;;;0.90;99.90;;;;;;5011251;28;20281;-81
2021/01/16 10:37:28;;;;;;;24.80;12.07;;;0.80;99.90;;;;;;4994607;28;20485;-81
2021/01/16 10:40:02;;;;;;;24.05;11.75;;;0.80;99.90;;;;;;5011815;28;20046;-80
2021/01/16 10:42:42;;;;;;;24.10;12.27;;;0.80;99.90;;;;;;4993666;28;20065;-80
2021/01/16 10:45:08;;;;;;;21.88;11.02;;;0.90;99.90;;;;;;5020609;28;20073;-81
2021/01/16 10:47:36;;;;;;;27.80;12.70;;;0.90;99.90;;;;;;4994719;28;20061;-81
2021/01/16 10:50:05;;;;;;;27.00;12.27;;;0.90;99.90;;;;;;4994351;28;20018;-81
2021/01/16 10:52:31;;;;;;;33.70;13.55;;;1.10;99.90;;;;;;4994115;28;20035;-81
2021/01/16 10:55:01;;;;;;;27.73;13.77;;;1.20;99.90;;;;;;4995838;28;20068;-82
2021/01/16 10:57:38;;;;;;;28.58;12.70;;;1.10;99.90;;;;;;5010663;28;20036;-82
2021/01/16 11:00:09;;;;;;;28.40;12.93;;;1.20;99.90;;;;;;4993592;28;20053;-81
2021/01/16 11:02:36;;;;;;;30.75;12.52;;;1.20;99.90;;;;;;5010380;28;20080;-81
2021/01/16 11:05:23;;;;;;;41.88;14.50;;;1.10;99.90;;;;;;5010938;28;20026;-81
2021/01/16 11:07:50;;;;;;;31.75;12.48;;;1.20;99.90;;;;;;4993878;28;20061;-81
2021/01/16 11:10:16;;;;;;;33.30;13.50;;;1.20;99.90;;;;;;5009080;28;20025;-81
2021/01/16 11:12:44;;;;;;;32.58;13.50;;;1.30;99.90;;;;;;4993339;28;20088;-81
2021/01/16 11:15:30;;;;;;;30.30;13.93;;;1.30;99.90;;;;;;4993015;28;20029;-81
2021/01/16 11:18:00;;;;;;;27.77;14.35;;;1.40;99.90;;;;;;4993691;28;20034;-81
2021/01/16 11:20:32;;;;;;;30.47;12.93;;;1.40;99.90;;;;;;4993116;28;20046;-82
2021/01/16 11:23:04;;;;;;;45.85;13.65;;;1.50;99.90;;;;;;4992395;28;20411;-81
2021/01/16 11:25:49;;;;;;;28.90;13.32;;;1.60;99.90;;;;;;4993363;28;20029;-81
2021/01/16 11:28:28;;;;;;;31.70;14.35;;;1.60;99.90;;;;;;4992126;28;20531;-81
2021/01/16 11:31:08;;;;;;;32.15;14.52;;;1.60;99.90;;;;;;4993013;28;20038;-81
2021/01/16 11:33:34;;;;;;;39.05;17.45;;;1.60;99.90;;;;;;4993081;28;20065;-81
2021/01/16 11:36:02;;;;;;;34.90;15.60;;;1.70;99.90;;;;;;4992458;28;20022;-81
2021/01/16 11:38:49;;;;;;;33.47;15.30;;;1.60;99.90;;;;;;5002734;28;20078;-80
2021/01/16 11:41:52;;;;;;;29.17;14.65;;;1.70;99.90;;;;;;4986597;28;20038;-81
2021/01/16 11:44:18;;;;;;;29.77;13.65;;;1.80;99.90;;;;;;4995143;28;20470;-80
2021/01/16 11:46:49;;;;;;;31.88;14.30;;;1.80;99.90;;;;;;4989149;28;20101;-81
2021/01/16 11:49:15;;;;;;;30.05;14.25;;;2.00;99.90;;;;;;4992295;28;20032;-82
2021/01/16 11:51:41;;;;;;;33.72;14.65;;;1.90;99.90;;;;;;4992297;28;20034;-80
2021/01/16 11:54:06;;;;;;;31.17;15.20;;;2.00;99.90;;;;;;4991808;28;20467;-80
2021/01/16 11:56:36;;;;;;;34.58;15.15;;;2.00;99.90;;;;;;4992793;28;20026;-80
2021/01/16 11:59:02;;;;;;;35.97;15.38;;;1.90;99.90;;;;;;4991623;28;20372;-80
2021/01/16 12:01:30;;;;;;;33.78;17.05;;;1.90;99.90;;;;;;4993272;28;20076;-80
2021/01/16 12:04:03;;;;;;;33.97;15.23;;;1.90;99.90;;;;;;5007003;28;20032;-82
2021/01/16 12:06:32;;;;;;;31.27;15.23;;;2.10;99.90;;;;;;5004069;28;20040;-81
2021/01/16 12:08:58;;;;;;;30.98;14.02;;;2.00;99.90;;;;;;5009471;28;20475;-80
2021/01/16 12:11:25;;;;;;;32.05;16.20;;;2.10;99.90;;;;;;5008293;28;20029;-80
2021/01/16 12:13:52;;;;;;;31.77;16.02;;;2.10;99.90;;;;;;5009235;28;20079;-80
2021/01/16 12:16:18;;;;;;;26.92;14.25;;;2.20;99.90;;;;;;5008557;28;20028;-80
2021/01/16 12:18:44;;;;;;;34.97;16.45;;;2.30;99.90;;;;;;5009181;28;20080;-79
2021/01/16 12:21:10;;;;;;;34.78;15.57;;;2.40;99.90;;;;;;5008034;28;20034;-82
2021/01/16 12:23:45;;;;;;;35.42;16.38;;;2.20;99.90;;;;;;5008050;28;20068;-82
2021/01/16 12:26:18;;;;;;;32.88;15.00;;;2.20;99.90;;;;;;5004203;28;20116;-81
2021/01/16 12:28:48;;;;;;;36.42;16.17;;;2.30;99.90;;;;;;5009205;28;20157;-79
2021/01/16 12:31:25;;;;;;;30.73;14.93;;;2.50;99.90;;;;;;5007889;28;20406;-80
2021/01/16 12:33:52;;;;;;;34.97;16.38;;;2.50;99.90;;;;;;5008700;28;20505;-80
2021/01/16 12:36:21;;;;;;;29.40;15.40;;;2.40;99.90;;;;;;5007291;28;20018;-82
2021/01/16 12:38:50;;;;;;;33.22;15.27;;;2.50;99.90;;;;;;5009144;28;20033;-81
2021/01/16 12:41:24;;;;;;;31.83;15.88;;;2.50;99.90;;;;;;5007958;28;20037;-80
2021/01/16 12:43:50;;;;;;;33.33;15.55;;;2.30;99.90;;;;;;5007180;28;20057;-80
2021/01/16 12:46:17;;;;;;;34.22;15.63;;;2.60;99.90;;;;;;5009197;28;20096;-80
2021/01/16 12:48:43;;;;;;;31.17;14.05;;;2.60;99.90;;;;;;5008975;28;20060;-80
2021/01/16 12:51:14;;;;;;;30.77;14.90;;;2.90;99.90;;;;;;5010563;28;20065;-80
2021/01/16 12:53:42;;;;;;;36.00;15.00;;;3.20;99.90;;;;;;5007464;28;20075;-80
2021/01/16 12:56:21;;;;;;;28.73;14.73;;;3.10;99.90;;;;;;5005116;28;20097;-80